sensor_id;sensor_type;location;lat;lon;timestamp;pressure;altitude;pressure_sealevel;temperature;humidity
70127;BME280;57491;42.694;23.314;2023-08-24T00:02:00;95245.78;;;25.39;54.38
70127;BME280;57491;42.694;23.314;2023-08-24T00:04:28;95244.72;;;25.40;54.43
70127;BME280;57491;42.694;23.314;2023-08-24T00:06:55;95245.78;;;25.39;54.63
70127;BME280;57491;42.694;23.314;2023-08-24T00:09:22;95254.28;;;25.41;54.65
70127;BME280;57491;42.694;23.314;2023-08-24T00:11:49;95245.50;;;25.40;54.90
70127;BME280;57491;42.694;23.314;2023-08-24T00:14:17;95250.56;;;25.42;54.65
70127;BME280;57491;42.694;23.314;2023-08-24T00:16:45;95244.69;;;25.45;55.11
70127;BME280;57491;42.694;23.314;2023-08-24T00:19:12;95239.66;;;25.43;54.90
70127;BME280;57491;42.694;23.314;2023-08-24T00:21:39;95239.09;;;25.41;55.29
70127;BME280;57491;42.694;23.314;2023-08-24T00:24:06;95231.13;;;25.36;55.54
70127;BME280;57491;42.694;23.314;2023-08-24T00:26:34;95233.25;;;25.34;54.90
70127;BME280;57491;42.694;23.314;2023-08-24T00:29:01;95230.59;;;25.29;54.60
70127;BME280;57491;42.694;23.314;2023-08-24T00:31:30;95239.13;;;25.26;54.63
70127;BME280;57491;42.694;23.314;2023-08-24T00:33:58;95237.78;;;25.23;54.92
70127;BME280;57491;42.694;23.314;2023-08-24T00:36:25;95238.31;;;25.10;54.84
70127;BME280;57491;42.694;23.314;2023-08-24T00:38:52;95236.72;;;25.09;54.95
70127;BME280;57491;42.694;23.314;2023-08-24T00:41:19;95238.84;;;25.07;55.18
70127;BME280;57491;42.694;23.314;2023-08-24T00:43:47;95242.84;;;25.10;54.60
70127;BME280;57491;42.694;23.314;2023-08-24T00:46:16;95245.50;;;25.10;54.95
70127;BME280;57491;42.694;23.314;2023-08-24T00:48:45;95229.28;;;25.06;55.11
70127;BME280;57491;42.694;23.314;2023-08-24T00:51:12;95230.06;;;25.02;55.19
70127;BME280;57491;42.694;23.314;2023-08-24T00:53:39;95235.66;;;25.05;55.43
70127;BME280;57491;42.694;23.314;2023-08-24T00:56:06;95238.84;;;25.07;55.12
70127;BME280;57491;42.694;23.314;2023-08-24T00:58:34;95249.47;;;24.97;55.59
70127;BME280;57491;42.694;23.314;2023-08-24T01:01:01;95245.50;;;24.95;54.88
70127;BME280;57491;42.694;23.314;2023-08-24T01:03:29;95245.19;;;24.91;55.21
70127;BME280;57491;42.694;23.314;2023-08-24T01:05:57;95237.44;;;24.79;55.49
70127;BME280;57491;42.694;23.314;2023-08-24T01:08:24;95219.09;;;24.63;55.84
70127;BME280;57491;42.694;23.314;2023-08-24T01:10:53;95222.50;;;24.63;55.77
70127;BME280;57491;42.694;23.314;2023-08-24T01:13:28;95238.47;;;24.68;55.92
70127;BME280;57491;42.694;23.314;2023-08-24T01:16:03;95233.72;;;24.70;55.84
70127;BME280;57491;42.694;23.314;2023-08-24T01:18:32;95238.75;;;24.67;55.88
70127;BME280;57491;42.694;23.314;2023-08-24T01:21:04;95223.84;;;24.61;55.95
70127;BME280;57491;42.694;23.314;2023-08-24T01:23:36;95221.19;;;24.56;55.95
70127;BME280;57491;42.694;23.314;2023-08-24T01:26:10;95235.53;;;24.60;56.01
70127;BME280;57491;42.694;23.314;2023-08-24T01:28:38;95240.03;;;24.54;56.29
70127;BME280;57491;42.694;23.314;2023-08-24T01:31:06;95249.91;;;24.54;56.53
70127;BME280;57491;42.694;23.314;2023-08-24T01:33:33;95242.41;;;24.51;56.56
70127;BME280;57491;42.694;23.314;2023-08-24T01:36:01;95240.84;;;24.44;56.75
70127;BME280;57491;42.694;23.314;2023-08-24T01:38:28;95237.34;;;24.39;56.73
70127;BME280;57491;42.694;23.314;2023-08-24T01:41:00;95231.75;;;24.30;56.78
70127;BME280;57491;42.694;23.314;2023-08-24T01:43:31;95241.63;;;24.40;56.33
70127;BME280;57491;42.694;23.314;2023-08-24T01:46:04;95247.72;;;24.40;55.78
70127;BME280;57491;42.694;23.314;2023-08-24T01:48:31;95242.41;;;24.40;55.95
70127;BME280;57491;42.694;23.314;2023-08-24T01:51:00;95255.94;;;24.34;55.95
70127;BME280;57491;42.694;23.314;2023-08-24T01:53:31;95247.94;;;24.29;55.94
70127;BME280;57491;42.694;23.314;2023-08-24T01:55:58;95253.78;;;24.26;56.13
70127;BME280;57491;42.694;23.314;2023-08-24T01:58:26;95250.84;;;24.27;56.19
70127;BME280;57491;42.694;23.314;2023-08-24T02:00:54;95249.25;;;24.21;56.49
70127;BME280;57491;42.694;23.314;2023-08-24T02:03:21;95252.41;;;24.18;56.31
70127;BME280;57491;42.694;23.314;2023-08-24T02:05:48;95247.56;;;24.15;56.33
70127;BME280;57491;42.694;23.314;2023-08-24T02:08:15;95247.38;;;24.17;56.54
70127;BME280;57491;42.694;23.314;2023-08-24T02:10:42;95250.03;;;24.17;56.29
70127;BME280;57491;42.694;23.314;2023-08-24T02:13:10;95246.56;;;24.16;56.48
70127;BME280;57491;42.694;23.314;2023-08-24T02:15:37;95243.91;;;24.16;56.71
70127;BME280;57491;42.694;23.314;2023-08-24T02:18:06;95250.81;;;24.17;56.54
70127;BME280;57491;42.694;23.314;2023-08-24T02:20:34;95244.66;;;24.12;56.74
70127;BME280;57491;42.694;23.314;2023-08-24T02:23:02;95254.28;;;24.18;56.78
70127;BME280;57491;42.694;23.314;2023-08-24T02:25:29;95245.69;;;24.11;56.79
70127;BME280;57491;42.694;23.314;2023-08-24T02:27:56;95252.91;;;24.15;57.01
70127;BME280;57491;42.694;23.314;2023-08-24T02:30:23;95261.09;;;24.14;56.90
70127;BME280;57491;42.694;23.314;2023-08-24T02:32:50;95256.59;;;24.14;56.75
70127;BME280;57491;42.694;23.314;2023-08-24T02:35:19;95256.56;;;24.09;56.87
70127;BME280;57491;42.694;23.314;2023-08-24T02:37:46;95247.84;;;24.09;56.54
70127;BME280;57491;42.694;23.314;2023-08-24T02:40:14;95233.97;;;24.01;56.78
70127;BME280;57491;42.694;23.314;2023-08-24T02:42:41;95235.03;;;24.00;57.17
70127;BME280;57491;42.694;23.314;2023-08-24T02:45:09;95231.25;;;23.91;56.97
70127;BME280;57491;42.694;23.314;2023-08-24T02:47:36;95231.44;;;23.75;57.90
70127;BME280;57491;42.694;23.314;2023-08-24T02:50:05;95227.69;;;23.71;58.35
70127;BME280;57491;42.694;23.314;2023-08-24T02:52:34;95233.00;;;23.71;58.22
70127;BME280;57491;42.694;23.314;2023-08-24T02:55:01;95242.31;;;23.73;58.62
70127;BME280;57491;42.694;23.314;2023-08-24T02:57:29;95238.31;;;23.71;58.64
70127;BME280;57491;42.694;23.314;2023-08-24T02:59:56;95249.50;;;23.73;58.76
70127;BME280;57491;42.694;23.314;2023-08-24T03:02:23;95240.69;;;23.67;59.19
70127;BME280;57491;42.694;23.314;2023-08-24T03:04:50;95246.28;;;23.71;58.97
70127;BME280;57491;42.694;23.314;2023-08-24T03:07:17;95238.88;;;23.73;58.65
70127;BME280;57491;42.694;23.314;2023-08-24T03:09:46;95248.41;;;23.74;58.75
70127;BME280;57491;42.694;23.314;2023-08-24T03:12:13;95243.09;;;23.74;58.58
70127;BME280;57491;42.694;23.314;2023-08-24T03:14:40;95256.34;;;23.69;58.66
70127;BME280;57491;42.694;23.314;2023-08-24T03:17:07;95255.25;;;23.65;59.00
70127;BME280;57491;42.694;23.314;2023-08-24T03:19:34;95252.91;;;23.68;58.66
70127;BME280;57491;42.694;23.314;2023-08-24T03:22:02;95251.59;;;23.71;58.72
70127;BME280;57491;42.694;23.314;2023-08-24T03:24:29;95266.47;;;23.72;58.61
70127;BME280;57491;42.694;23.314;2023-08-24T03:26:57;95266.41;;;23.62;59.17
70127;BME280;57491;42.694;23.314;2023-08-24T03:29:24;95263.75;;;23.62;58.96
70127;BME280;57491;42.694;23.314;2023-08-24T03:31:51;95261.34;;;23.60;58.86
70127;BME280;57491;42.694;23.314;2023-08-24T03:34:19;95273.84;;;23.65;58.81
70127;BME280;57491;42.694;23.314;2023-08-24T03:36:46;95270.09;;;23.61;58.86
70127;BME280;57491;42.694;23.314;2023-08-24T03:39:14;95279.88;;;23.55;59.00
70127;BME280;57491;42.694;23.314;2023-08-24T03:41:42;95280.44;;;23.57;59.21
70127;BME280;57491;42.694;23.314;2023-08-24T03:44:10;95288.91;;;23.54;59.41
70127;BME280;57491;42.694;23.314;2023-08-24T03:46:37;95293.13;;;23.50;59.50
70127;BME280;57491;42.694;23.314;2023-08-24T03:49:04;95300.00;;;23.51;59.48
70127;BME280;57491;42.694;23.314;2023-08-24T03:51:31;95291.78;;;23.47;59.42
70127;BME280;57491;42.694;23.314;2023-08-24T03:53:58;95293.13;;;23.50;59.72
70127;BME280;57491;42.694;23.314;2023-08-24T03:56:26;95295.50;;;23.51;60.04
70127;BME280;57491;42.694;23.314;2023-08-24T03:58:53;95286.47;;;23.47;60.35
70127;BME280;57491;42.694;23.314;2023-08-24T04:01:21;95289.63;;;23.44;60.54
70127;BME280;57491;42.694;23.314;2023-08-24T04:03:49;95293.81;;;23.40;60.43
70127;BME280;57491;42.694;23.314;2023-08-24T04:06:17;95289.31;;;23.41;60.47
70127;BME280;57491;42.694;23.314;2023-08-24T04:08:45;95293.53;;;23.42;60.55
70127;BME280;57491;42.694;23.314;2023-08-24T04:11:12;95297.34;;;23.46;60.43
70127;BME280;57491;42.694;23.314;2023-08-24T04:13:39;95303.47;;;23.51;60.13
70127;BME280;57491;42.694;23.314;2023-08-24T04:16:07;95284.09;;;23.51;59.87
70127;BME280;57491;42.694;23.314;2023-08-24T04:18:35;95293.94;;;23.50;59.51
70127;BME280;57491;42.694;23.314;2023-08-24T04:21:03;95285.66;;;23.47;59.74
70127;BME280;57491;42.694;23.314;2023-08-24T04:23:31;95286.47;;;23.47;59.70
70127;BME280;57491;42.694;23.314;2023-08-24T04:25:58;95289.91;;;23.48;59.38
70127;BME280;57491;42.694;23.314;2023-08-24T04:28:25;95295.50;;;23.51;59.73
70127;BME280;57491;42.694;23.314;2023-08-24T04:30:53;95297.91;;;23.53;59.80
70127;BME280;57491;42.694;23.314;2023-08-24T04:33:21;95299.53;;;23.54;59.69
70127;BME280;57491;42.694;23.314;2023-08-24T04:35:50;95310.97;;;23.60;59.30
70127;BME280;57491;42.694;23.314;2023-08-24T04:38:17;95300.91;;;23.62;59.49
70127;BME280;57491;42.694;23.314;2023-08-24T04:40:49;95295.88;;;23.65;59.29
70127;BME280;57491;42.694;23.314;2023-08-24T04:43:17;95299.38;;;23.71;59.31
70127;BME280;57491;42.694;23.314;2023-08-24T04:45:45;95299.63;;;23.69;58.99
70127;BME280;57491;42.694;23.314;2023-08-24T04:48:13;95294.88;;;23.71;58.85
70127;BME280;57491;42.694;23.314;2023-08-24T04:50:43;95272.53;;;23.67;58.81
70127;BME280;57491;42.694;23.314;2023-08-24T04:53:12;95293.56;;;23.74;58.46
70127;BME280;57491;42.694;23.314;2023-08-24T04:55:40;95285.84;;;23.72;58.39
70127;BME280;57491;42.694;23.314;2023-08-24T04:58:07;95298.91;;;23.79;58.24
70127;BME280;57491;42.694;23.314;2023-08-24T05:00:35;95307.47;;;23.86;58.13
70127;BME280;57491;42.694;23.314;2023-08-24T05:03:03;95305.84;;;23.85;58.00
70127;BME280;57491;42.694;23.314;2023-08-24T05:05:31;95301.84;;;23.82;58.07
70127;BME280;57491;42.694;23.314;2023-08-24T05:08:00;95301.59;;;23.84;57.94
70127;BME280;57491;42.694;23.314;2023-08-24T05:10:32;95306.16;;;23.93;57.94
70127;BME280;57491;42.694;23.314;2023-08-24T05:13:00;95308.06;;;23.98;57.89
70127;BME280;57491;42.694;23.314;2023-08-24T05:15:27;95312.34;;;24.09;57.85
70127;BME280;57491;42.694;23.314;2023-08-24T05:17:54;95310.31;;;24.16;57.78
70127;BME280;57491;42.694;23.314;2023-08-24T05:20:22;95304.22;;;24.21;57.09
70127;BME280;57491;42.694;23.314;2023-08-24T05:22:50;95321.03;;;24.31;57.06
70127;BME280;57491;42.694;23.314;2023-08-24T05:25:17;95325.28;;;24.37;56.70
70127;BME280;57491;42.694;23.314;2023-08-24T05:27:45;95332.00;;;24.50;56.26
70127;BME280;57491;42.694;23.314;2023-08-24T05:30:12;95321.13;;;24.57;56.43
70127;BME280;57491;42.694;23.314;2023-08-24T05:32:40;95314.00;;;24.62;56.26
70127;BME280;57491;42.694;23.314;2023-08-24T05:35:08;95305.16;;;24.52;55.84
70127;BME280;57491;42.694;23.314;2023-08-24T05:37:35;95340.06;;;24.70;55.68
70127;BME280;57491;42.694;23.314;2023-08-24T05:40:03;95340.88;;;24.71;55.86
70127;BME280;57491;42.694;23.314;2023-08-24T05:42:30;95330.22;;;24.66;55.61
70127;BME280;57491;42.694;23.314;2023-08-24T05:44:59;95330.78;;;24.78;55.38
70127;BME280;57491;42.694;23.314;2023-08-24T05:47:26;95323.34;;;24.80;55.18
70127;BME280;57491;42.694;23.314;2023-08-24T05:49:53;95328.22;;;24.93;54.93
70127;BME280;57491;42.694;23.314;2023-08-24T05:52:20;95340.22;;;25.11;54.48
70127;BME280;57491;42.694;23.314;2023-08-24T05:54:47;95333.31;;;25.15;54.41
70127;BME280;57491;42.694;23.314;2023-08-24T05:57:15;95347.97;;;25.38;53.76
70127;BME280;57491;42.694;23.314;2023-08-24T05:59:42;95341.63;;;25.54;53.09
70127;BME280;57491;42.694;23.314;2023-08-24T06:02:11;95332.59;;;25.65;52.36
70127;BME280;57491;42.694;23.314;2023-08-24T06:04:38;95337.38;;;25.83;52.67
70127;BME280;57491;42.694;23.314;2023-08-24T06:07:05;95312.59;;;25.77;52.29
70127;BME280;57491;42.694;23.314;2023-08-24T06:09:32;95338.91;;;26.19;51.59
70127;BME280;57491;42.694;23.314;2023-08-24T06:12:00;95344.78;;;26.37;51.35
70127;BME280;57491;42.694;23.314;2023-08-24T06:14:28;95336.13;;;26.70;50.27
70127;BME280;57491;42.694;23.314;2023-08-24T06:16:55;95338.69;;;26.95;49.90
70127;BME280;57491;42.694;23.314;2023-08-24T06:19:24;95329.13;;;27.33;48.88
70127;BME280;57491;42.694;23.314;2023-08-24T06:21:51;95339.88;;;27.67;48.19
70127;BME280;57491;42.694;23.314;2023-08-24T06:24:18;95340.13;;;28.00;46.96
70127;BME280;57491;42.694;23.314;2023-08-24T06:26:45;95341.28;;;28.22;46.62
70127;BME280;57491;42.694;23.314;2023-08-24T06:29:12;95340.59;;;28.35;45.83
70127;BME280;57491;42.694;23.314;2023-08-24T06:31:39;95338.69;;;28.41;45.92
70127;BME280;57491;42.694;23.314;2023-08-24T06:34:06;95337.94;;;28.35;45.80
70127;BME280;57491;42.694;23.314;2023-08-24T06:36:34;95336.97;;;28.50;46.25
70127;BME280;57491;42.694;23.314;2023-08-24T06:39:02;95329.44;;;28.52;45.36
70127;BME280;57491;42.694;23.314;2023-08-24T06:41:33;95333.00;;;28.71;45.30
70127;BME280;57491;42.694;23.314;2023-08-24T06:44:00;95339.69;;;28.93;45.17
70127;BME280;57491;42.694;23.314;2023-08-24T06:46:27;95343.59;;;29.19;44.54
70127;BME280;57491;42.694;23.314;2023-08-24T06:48:54;95343.91;;;29.36;43.29
70127;BME280;57491;42.694;23.314;2023-08-24T06:51:21;95339.81;;;29.44;43.05
70127;BME280;57491;42.694;23.314;2023-08-24T06:53:49;95333.44;;;29.58;43.08
70127;BME280;57491;42.694;23.314;2023-08-24T06:56:16;95340.88;;;29.61;43.17
70127;BME280;57491;42.694;23.314;2023-08-24T06:58:44;95339.03;;;29.76;42.97
70127;BME280;57491;42.694;23.314;2023-08-24T07:01:11;95330.56;;;29.68;41.71
70127;BME280;57491;42.694;23.314;2023-08-24T07:03:39;95327.09;;;29.68;42.02
70127;BME280;57491;42.694;23.314;2023-08-24T07:06:06;95315.09;;;29.65;42.19
70127;BME280;57491;42.694;23.314;2023-08-24T07:08:33;95321.16;;;29.71;41.91
70127;BME280;57491;42.694;23.314;2023-08-24T07:11:02;95322.97;;;29.76;41.77
70127;BME280;57491;42.694;23.314;2023-08-24T07:13:30;95320.63;;;29.88;41.47
70127;BME280;57491;42.694;23.314;2023-08-24T07:15:57;95324.78;;;30.12;40.80
70127;BME280;57491;42.694;23.314;2023-08-24T07:18:25;95320.81;;;30.24;40.53
70127;BME280;57491;42.694;23.314;2023-08-24T07:20:52;95324.00;;;30.26;40.43
70127;BME280;57491;42.694;23.314;2023-08-24T07:23:21;95321.72;;;30.33;39.69
70127;BME280;57491;42.694;23.314;2023-08-24T07:25:48;95324.25;;;30.56;39.92
70127;BME280;57491;42.694;23.314;2023-08-24T07:28:16;95319.53;;;30.89;39.46
70127;BME280;57491;42.694;23.314;2023-08-24T07:30:43;95316.44;;;31.10;38.45
70127;BME280;57491;42.694;23.314;2023-08-24T07:33:10;95316.88;;;31.25;37.84
70127;BME280;57491;42.694;23.314;2023-08-24T07:35:37;95313.06;;;31.40;37.36
70127;BME280;57491;42.694;23.314;2023-08-24T07:38:05;95313.44;;;31.61;36.93
70127;BME280;57491;42.694;23.314;2023-08-24T07:40:32;95308.03;;;31.83;36.31
70127;BME280;57491;42.694;23.314;2023-08-24T07:42:59;95305.00;;;32.07;35.84
70127;BME280;57491;42.694;23.314;2023-08-24T07:45:28;95318.19;;;32.48;34.87
70127;BME280;57491;42.694;23.314;2023-08-24T07:47:55;95307.09;;;32.80;34.59
70127;BME280;57491;42.694;23.314;2023-08-24T07:50:22;95305.84;;;32.95;34.01
70127;BME280;57491;42.694;23.314;2023-08-24T07:52:49;95309.72;;;33.19;34.63
70127;BME280;57491;42.694;23.314;2023-08-24T07:55:16;95307.66;;;33.34;33.89
70127;BME280;57491;42.694;23.314;2023-08-24T07:57:44;95311.28;;;33.55;33.53
70127;BME280;57491;42.694;23.314;2023-08-24T08:00:12;95302.44;;;33.63;33.52
70127;BME280;57491;42.694;23.314;2023-08-24T08:02:41;95301.94;;;33.78;33.10
70127;BME280;57491;42.694;23.314;2023-08-24T08:05:08;95307.63;;;34.02;32.09
70127;BME280;57491;42.694;23.314;2023-08-24T08:07:36;95302.50;;;34.27;31.53
70127;BME280;57491;42.694;23.314;2023-08-24T08:10:04;95307.97;;;34.47;31.54
70127;BME280;57491;42.694;23.314;2023-08-24T08:12:31;95304.41;;;34.64;30.37
70127;BME280;57491;42.694;23.314;2023-08-24T08:15:00;95299.34;;;34.92;30.57
70127;BME280;57491;42.694;23.314;2023-08-24T08:17:27;95305.25;;;35.15;30.74
70127;BME280;57491;42.694;23.314;2023-08-24T08:19:59;95285.84;;;35.13;30.26
70127;BME280;57491;42.694;23.314;2023-08-24T08:22:26;95297.56;;;35.46;30.61
70127;BME280;57491;42.694;23.314;2023-08-24T08:24:53;95302.09;;;35.54;30.08
70127;BME280;57491;42.694;23.314;2023-08-24T08:27:22;95300.63;;;35.77;29.56
70127;BME280;57491;42.694;23.314;2023-08-24T08:29:50;95296.88;;;36.03;29.55
70127;BME280;57491;42.694;23.314;2023-08-24T08:32:17;95285.91;;;36.20;29.36
70127;BME280;57491;42.694;23.314;2023-08-24T08:34:44;95293.81;;;36.49;28.40
70127;BME280;57491;42.694;23.314;2023-08-24T08:37:13;95291.00;;;36.58;28.43
70127;BME280;57491;42.694;23.314;2023-08-24T08:39:40;95288.44;;;36.86;27.59
70127;BME280;57491;42.694;23.314;2023-08-24T08:42:11;95280.97;;;36.95;27.61
70127;BME280;57491;42.694;23.314;2023-08-24T08:44:39;95284.88;;;37.22;27.39
70127;BME280;57491;42.694;23.314;2023-08-24T08:47:07;95282.97;;;37.22;27.35
70127;BME280;57491;42.694;23.314;2023-08-24T08:49:37;95279.56;;;37.25;27.12
70127;BME280;57491;42.694;23.314;2023-08-24T08:52:05;95275.03;;;37.29;27.17
70127;BME280;57491;42.694;23.314;2023-08-24T08:54:34;95246.28;;;37.13;26.32
70127;BME280;57491;42.694;23.314;2023-08-24T08:57:01;95257.41;;;37.35;26.71
70127;BME280;57491;42.694;23.314;2023-08-24T08:59:29;95266.16;;;37.17;26.31
70127;BME280;57491;42.694;23.314;2023-08-24T09:01:57;95261.66;;;37.08;26.26
70127;BME280;57491;42.694;23.314;2023-08-24T09:04:27;95245.50;;;37.12;26.38
70127;BME280;57491;42.694;23.314;2023-08-24T09:06:55;95250.47;;;37.38;26.79
70127;BME280;57491;42.694;23.314;2023-08-24T09:09:22;95248.16;;;37.64;26.96
70127;BME280;57491;42.694;23.314;2023-08-24T09:11:51;95252.78;;;37.91;26.16
70127;BME280;57491;42.694;23.314;2023-08-24T09:14:18;95238.44;;;38.22;25.24
70127;BME280;57491;42.694;23.314;2023-08-24T09:16:45;95242.91;;;38.62;25.37
70127;BME280;57491;42.694;23.314;2023-08-24T09:19:13;95234.78;;;38.97;24.55
70127;BME280;57491;42.694;23.314;2023-08-24T09:21:40;95235.22;;;38.83;24.22
70127;BME280;57491;42.694;23.314;2023-08-24T09:24:08;95222.78;;;38.98;24.31
70127;BME280;57491;42.694;23.314;2023-08-24T09:26:37;95230.03;;;39.28;23.60
70127;BME280;57491;42.694;23.314;2023-08-24T09:29:13;95214.59;;;39.33;23.57
70127;BME280;57491;42.694;23.314;2023-08-24T09:31:41;95213.84;;;39.74;23.62
70127;BME280;57491;42.694;23.314;2023-08-24T09:34:09;95205.16;;;40.10;22.83
70127;BME280;57491;42.694;23.314;2023-08-24T09:36:37;95213.91;;;40.20;23.06
70127;BME280;57491;42.694;23.314;2023-08-24T09:39:05;95201.34;;;40.38;22.77
70127;BME280;57491;42.694;23.314;2023-08-24T09:41:39;95208.38;;;40.62;21.89
70127;BME280;57491;42.694;23.314;2023-08-24T09:44:07;95209.06;;;40.85;21.54
70127;BME280;57491;42.694;23.314;2023-08-24T09:46:36;95199.84;;;40.93;21.33
70127;BME280;57491;42.694;23.314;2023-08-24T09:49:05;95203.00;;;41.25;21.01
70127;BME280;57491;42.694;23.314;2023-08-24T09:51:33;95197.84;;;41.50;21.01
70127;BME280;57491;42.694;23.314;2023-08-24T09:54:02;95195.16;;;41.53;20.87
70127;BME280;57491;42.694;23.314;2023-08-24T09:56:34;95184.34;;;41.64;20.91
70127;BME280;57491;42.694;23.314;2023-08-24T09:59:07;95194.28;;;41.79;20.47
70127;BME280;57491;42.694;23.314;2023-08-24T10:01:39;95178.88;;;41.60;20.41
70127;BME280;57491;42.694;23.314;2023-08-24T10:04:08;95183.72;;;41.77;20.91
70127;BME280;57491;42.694;23.314;2023-08-24T10:06:36;95180.38;;;41.95;21.15
70127;BME280;57491;42.694;23.314;2023-08-24T10:09:07;95176.41;;;42.29;19.89
70127;BME280;57491;42.694;23.314;2023-08-24T10:11:39;95178.03;;;42.37;19.18
70127;BME280;57491;42.694;23.314;2023-08-24T10:14:12;95174.50;;;42.33;19.26
70127;BME280;57491;42.694;23.314;2023-08-24T10:16:44;95167.47;;;42.32;19.05
70127;BME280;57491;42.694;23.314;2023-08-24T10:19:13;95167.75;;;42.23;19.42
70127;BME280;57491;42.694;23.314;2023-08-24T10:21:40;95168.38;;;42.54;19.25
70127;BME280;57491;42.694;23.314;2023-08-24T10:24:09;95167.78;;;42.78;19.41
70127;BME280;57491;42.694;23.314;2023-08-24T10:26:39;95172.19;;;43.00;19.17
70127;BME280;57491;42.694;23.314;2023-08-24T10:29:06;95164.44;;;43.13;19.12
70127;BME280;57491;42.694;23.314;2023-08-24T10:31:34;95160.34;;;42.79;18.46
70127;BME280;57491;42.694;23.314;2023-08-24T10:34:05;95167.25;;;42.11;19.18
70127;BME280;57491;42.694;23.314;2023-08-24T10:36:33;95151.97;;;41.62;19.78
70127;BME280;57491;42.694;23.314;2023-08-24T10:39:03;95153.66;;;41.07;20.56
70127;BME280;57491;42.694;23.314;2023-08-24T10:41:46;95153.91;;;40.65;21.27
70127;BME280;57491;42.694;23.314;2023-08-24T10:44:20;95157.22;;;40.29;21.63
70127;BME280;57491;42.694;23.314;2023-08-24T10:47:06;95154.56;;;40.09;21.78
70127;BME280;57491;42.694;23.314;2023-08-24T10:49:34;95156.16;;;39.68;22.00
70127;BME280;57491;42.694;23.314;2023-08-24T10:52:18;95159.66;;;39.27;22.23
70127;BME280;57491;42.694;23.314;2023-08-24T10:54:46;95174.63;;;38.98;22.99
70127;BME280;57491;42.694;23.314;2023-08-24T10:57:21;95176.97;;;38.65;24.30
70127;BME280;57491;42.694;23.314;2023-08-24T11:00:08;95166.25;;;37.90;25.43
70127;BME280;57491;42.694;23.314;2023-08-24T11:02:43;95162.69;;;37.15;26.49
70127;BME280;57491;42.694;23.314;2023-08-24T11:05:18;95162.69;;;36.62;26.70
70127;BME280;57491;42.694;23.314;2023-08-24T11:07:51;95161.81;;;36.46;26.62
70127;BME280;57491;42.694;23.314;2023-08-24T11:10:19;95156.84;;;36.12;25.49
70127;BME280;57491;42.694;23.314;2023-08-24T11:13:08;95152.41;;;35.95;25.89
70127;BME280;57491;42.694;23.314;2023-08-24T11:15:43;95151.31;;;35.96;26.61
70127;BME280;57491;42.694;23.314;2023-08-24T11:18:12;95141.94;;;36.30;26.45
70127;BME280;57491;42.694;23.314;2023-08-24T11:20:42;95139.94;;;36.27;26.44
70127;BME280;57491;42.694;23.314;2023-08-24T11:23:10;95142.16;;;36.49;26.02
70127;BME280;57491;42.694;23.314;2023-08-24T11:25:37;95138.31;;;36.50;26.07
70127;BME280;57491;42.694;23.314;2023-08-24T11:28:05;95142.25;;;36.53;26.19
70127;BME280;57491;42.694;23.314;2023-08-24T11:30:32;95131.47;;;36.29;26.32
70127;BME280;57491;42.694;23.314;2023-08-24T11:33:00;95153.25;;;36.32;26.57
70127;BME280;57491;42.694;23.314;2023-08-24T11:35:27;95150.97;;;36.22;26.82
70127;BME280;57491;42.694;23.314;2023-08-24T11:37:56;95155.91;;;36.08;27.23
70127;BME280;57491;42.694;23.314;2023-08-24T11:40:23;95168.53;;;35.79;27.88
70127;BME280;57491;42.694;23.314;2023-08-24T11:42:55;95157.41;;;35.48;27.44
70127;BME280;57491;42.694;23.314;2023-08-24T11:45:23;95154.09;;;35.30;27.50
70127;BME280;57491;42.694;23.314;2023-08-24T11:47:50;95158.50;;;35.14;27.36
70127;BME280;57491;42.694;23.314;2023-08-24T11:50:19;95151.25;;;35.06;27.77
70127;BME280;57491;42.694;23.314;2023-08-24T11:52:47;95147.72;;;34.93;28.37
70127;BME280;57491;42.694;23.314;2023-08-24T11:55:15;95154.19;;;34.80;28.86
70127;BME280;57491;42.694;23.314;2023-08-24T11:57:42;95153.41;;;34.80;29.47
70127;BME280;57491;42.694;23.314;2023-08-24T12:00:11;95141.53;;;34.72;29.36
70127;BME280;57491;42.694;23.314;2023-08-24T12:02:40;95133.16;;;34.44;29.74
70127;BME280;57491;42.694;23.314;2023-08-24T12:05:07;95141.88;;;34.41;29.95
70127;BME280;57491;42.694;23.314;2023-08-24T12:07:34;95128.81;;;34.23;30.63
70127;BME280;57491;42.694;23.314;2023-08-24T12:10:02;95116.72;;;33.99;30.86
70127;BME280;57491;42.694;23.314;2023-08-24T12:12:31;95117.19;;;34.01;31.24
70127;BME280;57491;42.694;23.314;2023-08-24T12:14:58;95102.00;;;33.88;31.47
70127;BME280;57491;42.694;23.314;2023-08-24T12:17:26;95108.25;;;33.80;32.11
70127;BME280;57491;42.694;23.314;2023-08-24T12:19:58;95111.16;;;33.58;32.82
70127;BME280;57491;42.694;23.314;2023-08-24T12:22:26;95111.53;;;33.39;32.78
70127;BME280;57491;42.694;23.314;2023-08-24T12:24:53;95117.59;;;33.19;33.49
70127;BME280;57491;42.694;23.314;2023-08-24T12:27:22;95105.91;;;32.89;33.26
70127;BME280;57491;42.694;23.314;2023-08-24T12:29:51;95109.25;;;32.69;33.19
70127;BME280;57491;42.694;23.314;2023-08-24T12:32:20;95112.84;;;32.56;33.91
70127;BME280;57491;42.694;23.314;2023-08-24T12:34:49;95092.44;;;32.38;34.30
70127;BME280;57491;42.694;23.314;2023-08-24T12:37:17;95126.00;;;32.49;34.18
70127;BME280;57491;42.694;23.314;2023-08-24T12:39:44;95099.09;;;32.40;33.40
70127;BME280;57491;42.694;23.314;2023-08-24T12:42:10;95125.69;;;32.59;33.69
70127;BME280;57491;42.694;23.314;2023-08-24T12:44:38;95114.81;;;32.64;34.05
70127;BME280;57491;42.694;23.314;2023-08-24T12:47:06;95124.78;;;32.81;33.57
70127;BME280;57491;42.694;23.314;2023-08-24T12:49:33;95125.06;;;32.96;32.57
70127;BME280;57491;42.694;23.314;2023-08-24T12:52:00;95126.66;;;33.14;32.94
70127;BME280;57491;42.694;23.314;2023-08-24T12:54:27;95125.22;;;33.26;32.84
70127;BME280;57491;42.694;23.314;2023-08-24T12:56:54;95136.75;;;33.35;32.63